Alder, Montana
Current Conditions -  °F | °C
As of 1:53 AM on Friday 19 Dec 2014 (Local Time) from KDLN Reporting Station
Overcast Overcast  
Wind Chill: 19°   Ceiling: 5000
Heat Index: 28°   Visibility: 10mi
Dew Point: 21°   Wind: 9mph
Humidity: 75%   Direction: 200°SSW
Pressure: 30"   Gusts: NA
Location:  45.32°N, 112.11°W
Report Text: KDLN 190853Z AUTO 20008KT 10SM OVC050 M02/M06 A3000 RMK AO2 SLP190 T10221061 55001
Loading
Personal Weather Stations






























Interactive Weather Map New forecast layout! Learn more

10-Day Weather Forecast

Advertisements
Track Severe Weather on mobile